АЭРОДРОМУУД

ICAO:
ZMUB
Нэр:
УЛААНБААТАР / ЧИНГИС ХААН
Ахц:
475033N 1064603E
170755 ZMUBYNYX
(A0564/19 NOTAMN
Q) ZMUB/QFAHX/IV/NBO/A /000/999/4752N10643E002
A) ZMUB B) 1910172300 C) 1910311300
D) 2300-0100 0900-1300
E) AD BIRD CONCENTRATION WI 2.6KM RADIUS CENTRED ON 475222N1064337E
F) GND G) 300M AGL)
- 5 days ago -

010023 ZMUBYNYX
(C0276/19 NOTAMR C0253/19
Q) ZMUB/QKKKK/K /K /K /000/999/4752N10350E999
A) ZMUB B) 1910010023 C) 1911010700 EST
E) CHECKLIST YEAR=2018 0325 YEAR=2019 0056 0140 0240 0241 0247 0248 0250 0262 0264 0270 0271 0272 0273 0274 0275 LATEST PUBLICATIONS: AIRAC AIP SUP : 01/18 WEF 21 JUN 2018 AIP SUP : 01/19 PUBLICATION DATE 14 MAR 2019 AIRAC AIP AMDT: 06/19 WEF 07 NOV 2019 AIP AMDT : 06/19 PUBLICATION DATE 26 SEP 2019 AIC(SERIES C) : 02/19 PUBLICATION DATE 14 MAR 2019)
- 3 weeks ago -

010019 ZMUBYNYX
(A0529/19 NOTAMR A0451/19
Q) ZMUB/QKKKK/K /K /K /000/999/4752N10350E999
A) ZMUB B) 1910010019 C) 1911010700 EST
E) CHECKLIST YEAR=2019 0246 0402 0443 0503 0523 LATEST PUBLICATIONS: AIRAC AIP SUP : 01/18 WEF 21 JUN 2018 AIP SUP : 01/19 PUBLICATION DATE 14 MAR 2019 AIRAC AIP AMDT: 06/19 WEF 07 NOV 2019 AIP AMDT : 06/19 PUBLICATION DATE 26 SEP 2019 AIC(SERIES A) : 01/19 PUBLICATION DATE 17 JAN 2019)
- 3 weeks ago -

METAR
No records found.
TAF
TAF ZMUB 221640Z 2218/2324 34005MPS 9999 SCT033 BKN100 TNM11/2223Z TXM01/2306Z BECMG 2221/2223 VRB02MPS SCT033 SCT100=
- 3 hours ago -

TAF ZMUB 221350Z 2215/2224 34005MPS 9999 SCT033 SCT100
- 6 hours ago -

TAF ZMUB 221350Z 2215/2224 34005MPS 9999 SCT033 SCT100
- 6 hours ago -

TAF ZMUB 221050Z 2212/2221 34005MPS 9999 SCT033 BKN100 TEMPO 2212/2220 6000 -SN SCT030 BKN080=
- 9 hours ago -

TAF ZMUB 221050Z 2212/2221 34005MPS 9999 SCT033 BKN100 TEMPO 2212/2220 6000 -SN SCT030 BKN080=
- 9 hours ago -

TAF ZMUB 221040Z 2212/2318 34005MPS 9999 SCT033 BKN100 TNM11/2223Z TXM01/2306Z TEMPO 2212/2220 6000 -SN SCT030 BKN080 BECMG 2221/2223 VRB02MPS SCT033 SCT100=
- 9 hours ago -

TAF COR ZMUB 220750Z 2209/2218 34006MPS 9999 SCT033 BKN100 TEMPO 2209/2217 6000 SN SCT030 BKN080 BECMG 2212/2214 VRB02MPS=
- 12 hours ago -

TAF COR ZMUB 220750Z 2209/2218 34006MPS 9999 SCT033 BKN100 TEMPO 2209/2217 6000 SN SCT030 BKN080 BECMG 2212/2214 VRB02MPS=
- 12 hours ago -

TAF ZMUB 220750Z 2209/2218 34006MPS 9999 SCT033 BKN100 TEMPO 2209/2217 6000 SN SCT030 BKN080 BECMG 2212/2214 VRB02MPS SCT033 SCT100=
- 12 hours ago -

TAF ZMUB 220750Z 2209/2218 34006MPS 9999 SCT033 BKN100 TEMPO 2209/2217 6000 SN SCT030 BKN080 BECMG 2212/2214 VRB02MPS SCT033 SCT100=
- 12 hours ago -

TAF ZMUB 220440Z 2206/2312 34006MPS 9999 SCT033 BKN100 TX06/2206Z TNM08/2223Z TEMPO 2206/2220 6000 SNRA SCT030 BKN080 BECMG 2212/2214 VRB02MPS SCT033 SCT100=
- 15 hours ago -

TAF ZMUB 212240Z 2200/2306 VRB02MPS 9999 SCT033 BKN100 TX03/2206Z TNM11/2223Z TEMPO 2205/2220 6000 -SNRA SCT030 BKN080 BECMG 2206/2208 34006MPS BECMG 2216/2218 VRB02MPS SCT100=
- 21 hours ago -

TAF ZMUB 211640Z 2118/2224 15005MPS 9999 BKN100 TNM06/2123Z TX03/2206Z BECMG 2123/2201 VRB02MPS SCT033 BKN100 BECMG 2206/2208 34005MPS TEMPO 2206/2224 6000 -SNRA SCT030 BKN080 BECMG 2216/2218 VRB02MPS=
- 1 day ago -

TAF ZMUB 211040Z 2112/2218 VRB02MPS 9999 BKN100 TNM06/2123Z TX03/2206Z BECMG 2117/2119 15005MPS BECMG 2200/2202 VRB02MPS SCT033 BKN100 BECMG 2206/2208 34005MPS TEMPO 2206/2218 6000 -SNRA SCT030 BKN080=
- 1 day ago -